sensor_id;sensor_type;location;lat;lon;timestamp;temperature;humidity
15152;DHT22;7676;50.900;6.234;2023-03-23T00:10:22;13.00;99.90
15152;DHT22;7676;50.900;6.234;2023-03-23T00:25:26;13.20;99.90
15152;DHT22;7676;50.900;6.234;2023-03-23T00:40:27;13.20;99.90
15152;DHT22;7676;50.900;6.234;2023-03-23T00:55:29;13.00;99.90
15152;DHT22;7676;50.900;6.234;2023-03-23T01:10:32;12.90;99.90
15152;DHT22;7676;50.900;6.234;2023-03-23T01:25:35;12.90;99.90
15152;DHT22;7676;50.900;6.234;2023-03-23T01:40:37;12.70;99.90
15152;DHT22;7676;50.900;6.234;2023-03-23T01:55:41;12.90;99.90
15152;DHT22;7676;50.900;6.234;2023-03-23T02:10:44;12.70;99.90
15152;DHT22;7676;50.900;6.234;2023-03-23T02:41:10;12.60;99.90
15152;DHT22;7676;50.900;6.234;2023-03-23T02:56:13;12.60;99.90
15152;DHT22;7676;50.900;6.234;2023-03-23T03:11:18;12.60;99.90
15152;DHT22;7676;50.900;6.234;2023-03-23T03:26:25;12.70;99.90
15152;DHT22;7676;50.900;6.234;2023-03-23T03:41:31;12.50;99.90
15152;DHT22;7676;50.900;6.234;2023-03-23T03:56:33;12.50;99.90
15152;DHT22;7676;50.900;6.234;2023-03-23T04:11:57;12.60;99.90
15152;DHT22;7676;50.900;6.234;2023-03-23T04:27:17;12.60;99.90
15152;DHT22;7676;50.900;6.234;2023-03-23T04:42:18;12.60;99.90
15152;DHT22;7676;50.900;6.234;2023-03-23T04:57:41;12.30;99.90
15152;DHT22;7676;50.900;6.234;2023-03-23T05:13:07;12.30;99.90
15152;DHT22;7676;50.900;6.234;2023-03-23T05:28:10;12.30;99.90
15152;DHT22;7676;50.900;6.234;2023-03-23T05:43:48;12.00;99.90
15152;DHT22;7676;50.900;6.234;2023-03-23T05:59:13;10.40;99.90
15152;DHT22;7676;50.900;6.234;2023-03-23T06:14:18;12.10;99.90
15152;DHT22;7676;50.900;6.234;2023-03-23T06:29:20;12.20;99.90
15152;DHT22;7676;50.900;6.234;2023-03-23T06:44:28;12.30;99.90
15152;DHT22;7676;50.900;6.234;2023-03-23T06:59:30;12.30;99.90
15152;DHT22;7676;50.900;6.234;2023-03-23T07:14:32;12.40;99.90
15152;DHT22;7676;50.900;6.234;2023-03-23T07:29:35;12.30;99.90
15152;DHT22;7676;50.900;6.234;2023-03-23T07:44:45;12.50;99.90
15152;DHT22;7676;50.900;6.234;2023-03-23T07:59:48;12.60;99.90
15152;DHT22;7676;50.900;6.234;2023-03-23T08:14:51;12.80;99.90
15152;DHT22;7676;50.900;6.234;2023-03-23T08:30:25;12.80;99.90
15152;DHT22;7676;50.900;6.234;2023-03-23T08:45:44;13.00;99.90
15152;DHT22;7676;50.900;6.234;2023-03-23T09:01:11;13.20;99.90
15152;DHT22;7676;50.900;6.234;2023-03-23T09:16:18;13.30;99.90
15152;DHT22;7676;50.900;6.234;2023-03-23T09:31:19;13.40;99.90
15152;DHT22;7676;50.900;6.234;2023-03-23T10:01:54;13.70;99.90
15152;DHT22;7676;50.900;6.234;2023-03-23T10:17:32;13.90;99.90
15152;DHT22;7676;50.900;6.234;2023-03-23T10:32:56;13.90;99.90
15152;DHT22;7676;50.900;6.234;2023-03-23T10:48:22;14.50;99.90
15152;DHT22;7676;50.900;6.234;2023-03-23T11:03:33;15.00;99.90
15152;DHT22;7676;50.900;6.234;2023-03-23T11:18:42;14.40;99.90
15152;DHT22;7676;50.900;6.234;2023-03-23T11:33:53;14.50;99.90
15152;DHT22;7676;50.900;6.234;2023-03-23T11:49:02;14.80;99.90
15152;DHT22;7676;50.900;6.234;2023-03-23T12:04:31;14.80;99.90
15152;DHT22;7676;50.900;6.234;2023-03-23T12:35:07;15.50;99.90
15152;DHT22;7676;50.900;6.234;2023-03-23T12:50:42;15.30;99.90
15152;DHT22;7676;50.900;6.234;2023-03-23T13:21:38;14.70;99.90
15152;DHT22;7676;50.900;6.234;2023-03-23T13:37:03;14.30;99.90
15152;DHT22;7676;50.900;6.234;2023-03-23T14:07:18;15.00;99.90
15152;DHT22;7676;50.900;6.234;2023-03-23T14:22:24;14.50;99.90
15152;DHT22;7676;50.900;6.234;2023-03-23T14:37:27;14.40;99.90
15152;DHT22;7676;50.900;6.234;2023-03-23T14:52:34;14.50;99.90
15152;DHT22;7676;50.900;6.234;2023-03-23T15:07:37;14.90;99.90
15152;DHT22;7676;50.900;6.234;2023-03-23T15:22:45;14.90;99.90
15152;DHT22;7676;50.900;6.234;2023-03-23T15:37:53;14.90;99.90
15152;DHT22;7676;50.900;6.234;2023-03-23T15:52:58;14.80;99.90
15152;DHT22;7676;50.900;6.234;2023-03-23T16:08:00;15.00;99.90
15152;DHT22;7676;50.900;6.234;2023-03-23T16:23:03;14.90;99.90
15152;DHT22;7676;50.900;6.234;2023-03-23T16:38:05;15.00;99.90
15152;DHT22;7676;50.900;6.234;2023-03-23T16:53:11;15.00;99.90
15152;DHT22;7676;50.900;6.234;2023-03-23T17:08:13;15.10;99.90
15152;DHT22;7676;50.900;6.234;2023-03-23T17:23:16;15.10;99.90
15152;DHT22;7676;50.900;6.234;2023-03-23T17:38:18;15.20;99.90
15152;DHT22;7676;50.900;6.234;2023-03-23T17:53:21;14.80;99.90
15152;DHT22;7676;50.900;6.234;2023-03-23T18:08:24;14.60;99.90
15152;DHT22;7676;50.900;6.234;2023-03-23T18:23:28;14.50;99.90
15152;DHT22;7676;50.900;6.234;2023-03-23T18:38:33;14.30;99.90
15152;DHT22;7676;50.900;6.234;2023-03-23T18:53:37;14.30;99.90
15152;DHT22;7676;50.900;6.234;2023-03-23T19:08:40;14.30;99.90
15152;DHT22;7676;50.900;6.234;2023-03-23T19:23:46;14.30;99.90
15152;DHT22;7676;50.900;6.234;2023-03-23T19:38:53;14.30;99.90
15152;DHT22;7676;50.900;6.234;2023-03-23T19:53:57;14.20;99.90
15152;DHT22;7676;50.900;6.234;2023-03-23T20:09:01;14.20;99.90
15152;DHT22;7676;50.900;6.234;2023-03-23T20:24:08;14.30;99.90
15152;DHT22;7676;50.900;6.234;2023-03-23T20:39:14;14.30;99.90
15152;DHT22;7676;50.900;6.234;2023-03-23T20:54:18;14.20;99.90
15152;DHT22;7676;50.900;6.234;2023-03-23T21:09:24;14.00;99.90
15152;DHT22;7676;50.900;6.234;2023-03-23T21:24:29;14.10;99.90
15152;DHT22;7676;50.900;6.234;2023-03-23T21:39:33;14.00;99.90
15152;DHT22;7676;50.900;6.234;2023-03-23T21:54:35;13.60;99.90
15152;DHT22;7676;50.900;6.234;2023-03-23T22:09:39;13.70;99.90
15152;DHT22;7676;50.900;6.234;2023-03-23T22:24:46;13.00;99.90
15152;DHT22;7676;50.900;6.234;2023-03-23T22:39:49;13.20;99.90
15152;DHT22;7676;50.900;6.234;2023-03-23T22:54:52;13.30;99.90
15152;DHT22;7676;50.900;6.234;2023-03-23T23:09:54;13.30;99.90
15152;DHT22;7676;50.900;6.234;2023-03-23T23:24:56;13.20;99.90
15152;DHT22;7676;50.900;6.234;2023-03-23T23:39:59;13.30;99.90
15152;DHT22;7676;50.900;6.234;2023-03-23T23:55:03;13.20;99.90
